Time;durP1;ratioP1;P1;durP2;ratioP2;P2;SDS_P1;SDS_P2;PMS_P1;PMS_P2;Temp;Humidity;BMP_temperature;BMP_pressure;BME280_temperature;BME280_humidity;BME280_pressure;Samples;Min_cycle;Max_cycle;Signal;HPM_P1;HPM_P2
2021/08/15 00:01:10;;;;;;;25.55;17.83;;;;;;;22.98;64.12;99061.39;263148;1092;116713;-62
2021/08/15 00:06:14;;;;;;;22.93;17.70;;;;;;;22.92;64.04;99062.89;263087;1092;116402;-64
2021/08/15 00:11:17;;;;;;;19.60;15.98;;;;;;;22.86;64.37;99063.58;263219;1093;115339;-62
2021/08/15 00:16:21;;;;;;;24.58;15.40;;;;;;;22.83;64.47;99064.80;263340;1093;115996;-66
2021/08/15 00:21:25;;;;;;;21.50;16.83;;;;;;;22.81;64.43;99061.39;263250;1092;115432;-68
2021/08/15 00:26:28;;;;;;;26.65;17.68;;;;;;;22.80;64.67;99042.59;262928;1093;115501;-63
2021/08/15 00:31:32;;;;;;;20.30;16.75;;;;;;;22.77;64.72;99049.20;263209;1093;115642;-61
2021/08/15 00:36:36;;;;;;;22.88;16.00;;;;;;;22.72;64.84;99046.14;262858;1092;115861;-64
2021/08/15 00:41:41;;;;;;;23.20;16.43;;;;;;;22.70;64.79;99047.36;262916;1093;115308;-63
2021/08/15 00:46:44;;;;;;;22.98;16.58;;;;;;;22.64;64.57;99055.15;262808;1092;115098;-65
2021/08/15 00:51:48;;;;;;;25.60;17.98;;;;;;;22.56;64.80;99054.33;263196;1093;115824;-64
2021/08/15 00:56:55;;;;;;;26.00;17.70;;;;;;;22.49;64.70;99050.61;262848;1092;205424;-65
2021/08/15 01:01:58;;;;;;;23.17;17.13;;;;;;;;;;263401;1093;115182;-66
2021/08/15 01:07:04;;;;;;;24.37;16.23;;;;;;;22.32;64.87;99055.20;263384;1093;101389;-72
2021/08/15 01:12:09;;;;;;;23.47;16.73;;;;;;;22.29;65.08;99056.38;263228;1093;115417;-66
2021/08/15 01:17:13;;;;;;;23.80;17.13;;;;;;;22.25;65.08;99062.29;262969;1092;115164;-65
2021/08/15 01:22:16;;;;;;;24.70;17.70;;;;;;;22.18;65.18;99062.98;263265;1093;115468;-64
2021/08/15 01:27:20;;;;;;;20.43;16.35;;;;;;;22.15;65.14;99057.91;262737;1092;115528;-68
2021/08/15 01:32:24;;;;;;;;;;;;;;;22.12;65.22;99058.20;262635;1092;114993;-71
2021/08/15 01:37:28;;;;;;;24.80;16.60;;;;;;;22.05;65.44;99059.05;263256;1093;101612;-70
2021/08/15 01:42:33;;;;;;;23.10;17.23;;;;;;;22.01;65.40;99054.95;262872;1092;115562;-62
2021/08/15 01:47:37;;;;;;;22.73;16.63;;;;;;;21.97;65.43;99055.29;263077;1093;115259;-63
2021/08/15 01:52:40;;;;;;;30.20;15.85;;;;;;;21.91;65.52;99058.70;263271;1091;115447;-63
2021/08/15 01:57:44;;;;;;;22.18;15.40;;;;;;;21.91;65.65;99055.14;262933;1093;115114;-60
2021/08/15 02:02:47;;;;;;;23.77;16.80;;;;;;;21.89;65.87;99055.30;263261;1092;116179;-63
2021/08/15 02:07:54;;;;;;;22.78;15.90;;;;;;;21.83;65.41;99047.83;262566;1092;115148;-63
2021/08/15 02:13:02;;;;;;;24.67;16.10;;;;;;;21.78;65.48;99050.20;263208;1092;115507;-65
2021/08/15 02:18:07;;;;;;;20.57;14.47;;;;;;;21.69;65.32;99045.77;263200;1092;115236;-66
2021/08/15 02:23:11;;;;;;;18.53;14.70;;;;;;;21.66;65.70;99051.52;262621;1092;115381;-65
2021/08/15 02:28:15;;;;;;;22.18;15.75;;;;;;;21.65;65.71;99045.26;262638;1092;115292;-63
2021/08/15 02:33:18;;;;;;;23.90;16.23;;;;;;;21.61;65.64;99034.94;262824;1093;115333;-64
2021/08/15 02:38:23;;;;;;;25.40;16.53;;;;;;;21.56;65.70;99042.69;263176;1092;116189;-68
2021/08/15 02:43:26;;;;;;;23.50;15.87;;;;;;;21.51;66.09;99039.65;262732;1093;115142;-64
2021/08/15 02:48:32;;;;;;;23.10;14.73;;;;;;;21.49;66.00;99028.96;262719;1093;115598;-64
2021/08/15 02:53:35;;;;;;;25.57;15.67;;;;;;;21.44;65.86;99024.05;263293;1093;115394;-62
2021/08/15 02:58:39;;;;;;;21.75;16.35;;;;;;;21.42;65.90;99026.06;262810;1093;115209;-63
2021/08/15 03:03:43;;;;;;;25.43;17.10;;;;;;;21.36;66.00;99023.17;262952;1092;115156;-63
2021/08/15 03:08:46;;;;;;;22.45;16.60;;;;;;;21.29;66.00;99022.94;263336;1092;115294;-62
2021/08/15 03:13:50;;;;;;;23.02;15.35;;;;;;;21.26;66.05;99025.97;263223;1092;115281;-64
2021/08/15 03:18:53;;;;;;;21.38;16.40;;;;;;;21.23;66.23;99029.88;263185;1093;115185;-70
2021/08/15 03:23:57;;;;;;;22.88;16.50;;;;;;;21.21;66.36;99022.92;263213;1093;115371;-64
2021/08/15 03:29:01;;;;;;;23.80;16.88;;;;;;;21.20;66.57;99027.50;262429;1092;115493;-66
2021/08/15 03:34:04;;;;;;;22.83;15.78;;;;;;;21.16;66.42;99026.13;263136;1092;115534;-63
2021/08/15 03:39:08;;;;;;;20.63;15.48;;;;;;;21.12;66.52;99022.03;263191;1092;115840;-63
2021/08/15 03:44:12;;;;;;;26.60;17.03;;;;;;;21.14;67.03;99020.02;263058;1092;116108;-65
2021/08/15 03:49:17;;;;;;;25.33;17.08;;;;;;;21.12;66.61;99022.03;263197;1093;115757;-63
2021/08/15 03:54:21;;;;;;;24.80;16.73;;;;;;;21.12;66.65;99024.73;263137;1093;116316;-61
2021/08/15 03:59:25;;;;;;;22.20;15.28;;;;;;;21.11;66.68;99016.80;263162;1092;116503;-59
2021/08/15 04:04:28;;;;;;;23.75;16.13;;;;;;;21.08;66.45;99011.70;262625;1092;115257;-61
2021/08/15 04:09:32;;;;;;;19.98;15.30;;;;;;;21.06;66.95;99013.71;263120;1092;115882;-66
2021/08/15 04:14:36;;;;;;;20.30;16.28;;;;;;;21.04;66.36;99008.48;262972;1092;115342;-63
2021/08/15 04:19:39;;;;;;;24.65;16.80;;;;;;;21.03;66.88;99006.80;263169;1092;115916;-65
2021/08/15 04:24:44;;;;;;;22.65;15.23;;;;;;;21.06;66.98;99011.88;262991;1092;115607;-62
2021/08/15 04:29:48;;;;;;;19.67;14.20;;;;;;;21.11;67.05;99005.97;263051;1093;115804;-63
2021/08/15 04:34:52;;;;;;;20.90;16.23;;;;;;;21.17;67.11;99003.46;263186;1093;115463;-60
2021/08/15 04:39:57;;;;;;;26.23;17.63;;;;;;;21.23;67.15;99004.67;263181;1092;114971;-61
2021/08/15 04:45:01;;;;;;;22.00;15.97;;;;;;;21.25;67.33;98998.06;263304;1092;114956;-62
2021/08/15 04:50:07;;;;;;;23.57;15.43;;;;;;;21.31;67.22;98993.02;263117;1093;115224;-61
2021/08/15 04:55:12;;;;;;;147.87;122.87;;;;;;;21.64;68.15;98991.27;262265;1093;115576;-65
2021/08/15 05:00:15;;;;;;;;;;;;;;;22.03;68.10;98990.60;263198;1092;115428;-65
2021/08/15 05:05:19;;;;;;;38.73;29.73;;;;;;;22.28;67.54;98989.63;263276;1092;101755;-63
2021/08/15 05:10:24;;;;;;;23.43;18.53;;;;;;;22.44;66.98;98991.44;263022;1093;115871;-64
2021/08/15 05:15:27;;;;;;;29.15;21.03;;;;;;;22.54;66.99;98989.39;263074;1092;115321;-66
2021/08/15 05:20:31;;;;;;;22.63;17.07;;;;;;;22.67;66.42;98989.69;263170;1092;115351;-65
2021/08/15 05:25:35;;;;;;;21.43;15.75;;;;;;;22.81;67.05;98984.56;263047;1092;115377;-65
2021/08/15 05:30:39;;;;;;;109.78;82.45;;;;;;;22.93;66.58;98987.77;263066;1093;115659;-68
2021/08/15 05:35:42;;;;;;;40.85;31.63;;;;;;;23.03;66.33;98978.42;263104;1093;115810;-64
2021/08/15 05:40:46;;;;;;;31.43;25.08;;;;;;;23.10;66.32;98979.41;263198;1093;115829;-68
2021/08/15 05:45:50;;;;;;;28.73;22.43;;;;;;;23.16;65.87;98980.54;262871;1092;116021;-66
2021/08/15 05:50:53;;;;;;;26.28;21.08;;;;;;;23.25;65.80;98986.80;263148;1092;115534;-66
2021/08/15 05:55:57;;;;;;;19.30;16.33;;;;;;;23.29;65.98;98979.98;262992;1093;115286;-66
2021/08/15 06:01:01;;;;;;;262.20;233.30;;;;;;;23.35;65.83;98985.54;262897;1092;116023;-66
2021/08/15 06:06:05;;;;;;;29.90;24.68;;;;;;;23.43;65.90;98975.65;263207;1093;115787;-64
2021/08/15 06:11:09;;;;;;;104.85;89.25;;;;;;;23.46;65.98;98973.42;262727;1092;115529;-68
2021/08/15 06:16:12;;;;;;;38.63;29.73;;;;;;;23.55;65.77;98976.95;263073;1093;115584;-68
2021/08/15 06:21:16;;;;;;;28.83;20.28;;;;;;;23.64;66.04;98972.28;262948;1093;115594;-64
2021/08/15 06:26:20;;;;;;;32.23;23.88;;;;;;;23.70;65.76;98971.59;263205;1092;115320;-65
2021/08/15 06:31:24;;;;;;;28.88;25.25;;;;;;;23.77;65.61;98965.25;263134;1093;115453;-67
2021/08/15 06:36:28;;;;;;;29.03;23.00;;;;;;;23.82;65.51;98972.88;263133;1093;115149;-67
2021/08/15 06:41:33;;;;;;;27.35;21.50;;;;;;;23.91;65.64;98970.92;263209;1092;115373;-67
2021/08/15 06:46:37;;;;;;;36.03;21.50;;;;;;;23.99;65.30;98970.88;263360;1093;115167;-67
2021/08/15 06:51:41;;;;;;;79.40;65.80;;;;;;;24.14;65.52;98966.31;263183;1092;115181;-67
2021/08/15 06:56:45;;;;;;;20.97;15.47;;;;;;;24.30;65.94;98968.04;263052;1093;115353;-65
2021/08/15 07:01:49;;;;;;;18.27;13.97;;;;;;;24.43;65.40;98967.44;263110;1092;115632;-66
2021/08/15 07:06:53;;;;;;;18.65;13.33;;;;;;;24.51;65.08;98953.73;262458;1093;115459;-61
2021/08/15 07:11:56;;;;;;;18.35;13.23;;;;;;;24.57;65.00;98954.88;263148;1093;115954;-65
2021/08/15 07:17:00;;;;;;;18.40;12.20;;;;;;;24.67;64.99;98944.56;262753;1093;115769;-68
2021/08/15 07:22:03;;;;;;;618.68;520.40;;;;;;;24.82;64.93;98944.54;263116;1093;115576;-64
2021/08/15 07:27:07;;;;;;;29.75;22.93;;;;;;;24.92;64.51;98947.81;263191;1092;115761;-63
2021/08/15 07:32:11;;;;;;;;;;;;;;;24.99;64.34;98946.02;263235;1093;115644;-60
2021/08/15 07:37:15;;;;;;;14.13;12.27;;;;;;;25.01;63.85;98938.52;263240;1093;102031;-65
2021/08/15 07:42:20;;;;;;;110.63;80.48;;;;;;;25.07;63.70;98943.20;263094;1093;115305;-62
2021/08/15 07:47:23;;;;;;;15.77;12.97;;;;;;;25.13;63.52;98938.89;263170;1093;115540;-64
2021/08/15 07:52:27;;;;;;;13.63;11.38;;;;;;;25.22;63.55;98933.14;263230;1093;115247;-65
2021/08/15 07:57:31;;;;;;;32.88;22.98;;;;;;;25.35;63.95;98926.17;263080;1092;115899;-68
2021/08/15 08:02:35;;;;;;;15.98;12.08;;;;;;;25.45;63.96;98926.70;263043;1093;115895;-65
2021/08/15 08:07:39;;;;;;;36.18;27.53;;;;;;;25.55;63.54;98927.22;263124;1093;116259;-65
2021/08/15 08:12:45;;;;;;;;;;;;;;;25.58;63.39;98926.84;263135;1091;115009;-68
2021/08/15 08:17:53;;;;;;;17.83;11.27;;;;;;;25.61;63.46;98931.03;263272;1093;102111;-64
2021/08/15 08:23:00;;;;;;;14.97;10.27;;;;;;;25.68;63.39;98927.35;263400;1092;116513;-68
2021/08/15 08:28:04;;;;;;;12.20;9.33;;;;;;;25.82;63.06;98922.06;263113;1093;115422;-65
2021/08/15 08:33:08;;;;;;;;;;;;;;;25.96;63.09;98915.67;262664;1091;115077;-65
2021/08/15 08:38:12;;;;;;;13.83;10.57;;;;;;;26.07;63.01;98917.85;262906;1093;102514;-69
2021/08/15 08:43:20;;;;;;;15.15;10.03;;;;;;;26.16;62.94;98913.95;263085;1093;115399;-66
2021/08/15 08:48:23;;;;;;;14.10;9.93;;;;;;;26.22;62.56;98901.38;263096;1093;115677;-67
2021/08/15 08:53:27;;;;;;;409.53;328.48;;;;;;;26.28;62.64;98897.02;263091;1092;115891;-66
2021/08/15 09:04:44;;;;;;;104.73;86.27;;;;;;;26.46;62.30;98883.72;262975;1093;115259;-65
2021/08/15 09:10:02;;;;;;;19.60;17.50;;;;;;;26.60;62.40;98880.03;263114;1093;115389;-66
2021/08/15 09:15:20;;;;;;;14.80;11.17;;;;;;;26.77;62.38;98872.34;263085;1092;115360;-66
2021/08/15 09:20:42;;;;;;;11.87;8.27;;;;;;;26.91;61.49;98867.78;262641;1092;115540;-65
2021/08/15 09:25:46;;;;;;;10.97;7.77;;;;;;;27.03;60.95;98860.66;263181;1092;115357;-68
2021/08/15 09:30:51;;;;;;;12.50;8.13;;;;;;;27.08;60.96;98858.16;262803;1092;115022;-61
2021/08/15 09:35:55;;;;;;;11.17;7.37;;;;;;;27.11;60.67;98851.45;263149;1092;114906;-61
2021/08/15 09:40:58;;;;;;;9.25;8.30;;;;;;;27.14;60.05;98840.15;263253;1092;115328;-66
2021/08/15 09:46:02;;;;;;;8.43;6.97;;;;;;;27.20;59.80;98847.48;263147;1092;115397;-67
2021/08/15 09:51:19;;;;;;;11.53;7.43;;;;;;;27.24;59.56;98846.05;262676;1092;116577;-65
2021/08/15 09:56:39;;;;;;;35.80;27.40;;;;;;;27.30;58.99;98839.73;263048;1091;115264;-62
2021/08/15 10:01:44;;;;;;;19.23;11.93;;;;;;;27.38;58.62;98830.52;262239;1092;115851;-64
2021/08/15 10:06:51;;;;;;;13.37;8.63;;;;;;;27.45;58.52;98830.52;263156;1093;115394;-64
2021/08/15 10:11:54;;;;;;;11.07;8.80;;;;;;;27.49;58.24;98820.84;263169;1092;115542;-63
2021/08/15 10:17:00;;;;;;;;;;;;;;;27.59;58.69;98819.38;263249;1092;115578;-64
2021/08/15 10:22:05;;;;;;;12.65;7.13;;;;;;;27.71;57.66;98810.53;263181;1091;102257;-63
2021/08/15 10:27:09;;;;;;;10.63;7.13;;;;;;;27.79;57.26;98810.36;263103;1092;115180;-67
2021/08/15 10:32:20;;;;;;;12.25;7.30;;;;;;;27.79;57.16;98805.73;262974;1093;115365;-63
2021/08/15 10:37:26;;;;;;;78.00;58.27;;;;;;;27.86;56.85;98794.78;263109;1092;115306;-62
2021/08/15 10:42:39;;;;;;;13.90;9.23;;;;;;;27.97;56.89;98794.13;263119;1092;115676;-67
2021/08/15 10:48:05;;;;;;;27.23;23.83;;;;;;;27.99;56.28;98792.03;263171;1092;115823;-67
2021/08/15 10:53:27;;;;;;;22.60;16.33;;;;;;;27.97;56.45;98783.18;262983;1093;115648;-65
2021/08/15 10:58:39;;;;;;;14.03;10.75;;;;;;;27.89;56.39;98788.89;263047;1093;115477;-66
2021/08/15 11:03:50;;;;;;;13.70;8.30;;;;;;;27.80;56.33;98790.16;263159;1093;116780;-66
2021/08/15 11:08:55;;;;;;;14.20;7.80;;;;;;;27.73;56.26;98797.49;263099;1092;115384;-66
2021/08/15 11:14:17;;;;;;;20.07;13.30;;;;;;;27.70;56.39;98795.18;263265;1092;115643;-66
2021/08/15 11:19:21;;;;;;;12.35;8.20;;;;;;;27.77;57.31;98785.11;263186;1093;115137;-66
2021/08/15 11:24:24;;;;;;;12.10;6.53;;;;;;;27.90;57.70;98782.35;262748;1093;116792;-61
2021/08/15 11:29:28;;;;;;;11.40;6.90;;;;;;;28.17;58.46;98774.09;263240;1093;115302;-60
2021/08/15 11:34:32;;;;;;;13.67;7.50;;;;;;;28.40;57.97;98779.94;263181;1092;115498;-65
2021/08/15 11:39:38;;;;;;;12.20;9.05;;;;;;;28.63;57.63;98776.66;263080;1092;115211;-63
2021/08/15 11:44:59;;;;;;;9.77;6.80;;;;;;;28.96;57.61;98761.94;263131;1092;115287;-63
2021/08/15 11:50:19;;;;;;;10.17;6.90;;;;;;;29.36;57.80;98764.44;263213;1093;116346;-63
2021/08/15 11:55:27;;;;;;;11.73;7.53;;;;;;;29.69;57.68;98761.44;262502;1092;115140;-64
2021/08/15 12:00:35;;;;;;;11.97;7.57;;;;;;;29.80;56.95;98757.95;263158;1092;119219;-64
2021/08/15 12:05:49;;;;;;;12.83;6.80;;;;;;;29.78;56.50;98749.09;263330;1092;115075;-64
2021/08/15 12:10:54;;;;;;;13.10;6.83;;;;;;;29.96;56.47;98747.42;263182;1092;114964;-63
2021/08/15 12:15:57;;;;;;;10.17;7.43;;;;;;;29.91;55.29;98745.38;263264;1093;115804;-65
2021/08/15 12:21:20;;;;;;;10.48;7.75;;;;;;;29.86;54.68;98746.07;263323;1092;114985;-66
2021/08/15 12:26:59;;;;;;;10.97;7.47;;;;;;;30.14;54.63;98741.96;263211;1092;115469;-63
2021/08/15 12:32:10;;;;;;;150.90;115.40;;;;;;;30.31;53.67;98721.08;263189;1092;115316;-67
2021/08/15 12:37:28;;;;;;;15.13;12.50;;;;;;;30.42;53.34;98721.38;263124;1092;115692;-68
2021/08/15 12:42:32;;;;;;;11.70;9.63;;;;;;;30.55;52.51;98716.54;263218;1092;115191;-67
2021/08/15 12:47:39;;;;;;;10.30;7.97;;;;;;;30.72;52.28;98722.22;263316;1093;115330;-67
2021/08/15 12:52:49;;;;;;;9.10;7.37;;;;;;;30.67;51.59;98718.48;263165;1093;116601;-68
2021/08/15 12:57:59;;;;;;;11.63;7.53;;;;;;;30.67;50.91;98711.08;263111;1093;115317;-67
2021/08/15 13:03:06;;;;;;;10.43;7.27;;;;;;;30.66;50.92;98705.83;263148;1092;115728;-69
2021/08/15 13:08:12;;;;;;;10.77;6.93;;;;;;;30.83;50.44;98696.71;263175;1092;115677;-70
2021/08/15 13:13:16;;;;;;;9.63;6.90;;;;;;;31.08;50.13;98692.94;263153;1093;115344;-68
2021/08/15 13:18:19;;;;;;;;;;;;;;;31.30;49.87;98696.80;263223;1092;115064;-69
2021/08/15 13:23:23;;;;;;;8.78;6.40;;;;;;;31.54;49.12;98696.84;263267;1092;102232;-69
2021/08/15 13:28:26;;;;;;;;;;;;;;;31.74;48.17;98690.98;263190;1092;115777;-68
2021/08/15 13:33:30;;;;;;;8.90;6.07;;;;;;;31.93;47.93;98694.44;263405;1092;101125;-68
2021/08/15 13:38:34;;;;;;;8.33;6.03;;;;;;;32.13;47.38;98688.53;263135;1093;115010;-68
2021/08/15 13:43:37;;;;;;;;;;;;;;;32.32;46.72;98675.43;263172;1092;115275;-70
2021/08/15 13:48:41;;;;;;;7.90;6.40;;;;;;;32.45;47.03;98670.50;263218;1092;101567;-69
2021/08/15 13:53:44;;;;;;;8.93;6.90;;;;;;;32.63;46.55;98672.20;263275;1093;115340;-69
2021/08/15 13:58:48;;;;;;;;;;;;;;;32.76;45.51;98681.26;262803;1092;115611;-69
2021/08/15 14:03:51;;;;;;;8.00;6.48;;;;;;;32.82;45.20;98670.08;263004;1093;102916;-69
2021/08/15 14:08:55;;;;;;;9.20;6.63;;;;;;;32.94;45.02;98664.48;263164;1092;114710;-69
2021/08/15 14:14:02;;;;;;;21.27;15.97;;;;;;;33.02;44.79;98669.63;263018;1093;115273;-69
2021/08/15 14:19:07;;;;;;;11.83;9.87;;;;;;;32.96;44.47;98663.18;263103;1093;115269;-69
2021/08/15 14:24:13;;;;;;;8.13;7.13;;;;;;;32.93;43.88;98669.16;263266;1092;115343;-69
2021/08/15 14:29:17;;;;;;;8.13;6.50;;;;;;;32.88;43.65;98649.79;263131;1093;115333;-69
2021/08/15 14:34:20;;;;;;;9.20;6.83;;;;;;;32.65;43.27;98652.68;263184;1093;115439;-68
2021/08/15 14:39:24;;;;;;;8.97;6.10;;;;;;;32.42;43.02;98653.63;263196;1092;114682;-68
2021/08/15 14:44:28;;;;;;;7.77;6.27;;;;;;;32.19;43.17;98652.59;263260;1093;115589;-69
2021/08/15 14:49:31;;;;;;;8.27;5.77;;;;;;;31.94;42.71;98643.83;263142;1093;115463;-70
2021/08/15 14:54:37;;;;;;;12.20;7.70;;;;;;;31.65;42.70;98643.72;263204;1092;115307;-68
2021/08/15 14:59:41;;;;;;;6.60;5.67;;;;;;;31.36;42.55;98648.30;263188;1092;115218;-68
2021/08/15 15:04:47;;;;;;;125.53;103.67;;;;;;;31.05;42.42;98639.29;263172;1092;115049;-69
2021/08/15 15:09:51;;;;;;;11.43;10.13;;;;;;;30.84;42.83;98637.95;263128;1092;116728;-68
2021/08/15 15:14:56;;;;;;;;;;;;;;;30.64;42.47;98632.73;263266;1092;115662;-66
2021/08/15 15:20:00;;;;;;;8.57;6.40;;;;;;;30.45;42.81;98617.38;263375;1092;101550;-66
2021/08/15 15:25:04;;;;;;;9.30;6.10;;;;;;;30.29;42.77;98613.38;263259;1093;117033;-66
2021/08/15 15:30:10;;;;;;;8.60;5.57;;;;;;;30.13;42.58;98606.63;263237;1092;115494;-68
2021/08/15 15:35:13;;;;;;;7.30;5.67;;;;;;;30.01;42.46;98602.14;263201;1092;115358;-68
2021/08/15 15:40:17;;;;;;;8.00;5.50;;;;;;;29.88;42.73;98617.70;263199;1092;117092;-66
2021/08/15 15:45:25;;;;;;;6.63;5.50;;;;;;;29.78;42.37;98616.56;263158;1092;115744;-68
2021/08/15 15:50:29;;;;;;;6.67;5.50;;;;;;;29.67;42.64;98609.95;263141;1093;115229;-67
2021/08/15 15:55:33;;;;;;;9.43;5.90;;;;;;;29.59;42.56;98619.33;263327;1092;115490;-67
2021/08/15 16:00:36;;;;;;;8.25;5.60;;;;;;;29.50;42.66;98622.56;263175;1092;115970;-67
2021/08/15 16:05:40;;;;;;;170.23;147.87;;;;;;;29.42;42.92;98624.54;263200;1093;115606;-67
2021/08/15 16:10:44;;;;;;;23.33;19.20;;;;;;;29.36;42.96;98638.31;263172;1093;115935;-69
2021/08/15 16:15:48;;;;;;;16.23;10.25;;;;;;;29.30;42.74;98636.47;263126;1092;116127;-69
2021/08/15 16:20:53;;;;;;;6.73;6.10;;;;;;;29.23;43.25;98642.02;263140;1092;115057;-68
2021/08/15 16:25:57;;;;;;;7.27;5.77;;;;;;;29.15;43.52;98636.84;263146;1093;115071;-69
2021/08/15 16:31:01;;;;;;;;;;;;;;;29.05;44.03;98639.25;263108;1093;115659;-69
2021/08/15 16:36:05;;;;;;;8.27;7.43;;;;;;;28.90;44.14;98639.53;263394;1091;101889;-68
2021/08/15 16:41:09;;;;;;;8.03;7.23;;;;;;;28.75;44.11;98639.87;263165;1092;115464;-67
2021/08/15 16:46:12;;;;;;;11.37;7.30;;;;;;;28.60;44.60;98644.80;263135;1093;115389;-69
2021/08/15 16:51:16;;;;;;;;;;;;;;;28.48;44.94;98648.27;263177;1093;116370;-68
2021/08/15 16:56:20;;;;;;;9.00;6.20;;;;;;;28.36;45.22;98641.77;263317;1093;101839;-68
2021/08/15 17:01:23;;;;;;;9.00;6.13;;;;;;;28.27;45.31;98643.10;263220;1092;115119;-69
2021/08/15 17:06:27;;;;;;;9.63;6.67;;;;;;;28.20;45.69;98640.39;263150;1092;115689;-67
2021/08/15 17:11:31;;;;;;;10.57;6.50;;;;;;;28.13;45.82;98636.02;263272;1093;115566;-66
2021/08/15 17:16:35;;;;;;;259.55;223.45;;;;;;;28.02;46.30;98641.13;263192;1092;115106;-65
2021/08/15 17:21:39;;;;;;;38.85;32.53;;;;;;;27.93;46.44;98641.58;263164;1093;116337;-68
2021/08/15 17:26:42;;;;;;;17.63;13.03;;;;;;;27.82;46.89;98635.73;263143;1092;115662;-67
2021/08/15 17:31:47;;;;;;;21.77;15.98;;;;;;;27.72;46.72;98637.22;263104;1092;115563;-67
2021/08/15 17:36:51;;;;;;;14.60;11.70;;;;;;;27.60;46.91;98632.39;263145;1091;115236;-66
2021/08/15 17:41:54;;;;;;;14.40;10.43;;;;;;;27.47;46.90;98634.32;263260;1092;115995;-66
2021/08/15 17:46:59;;;;;;;14.58;8.25;;;;;;;27.28;46.89;98636.89;263186;1092;115474;-68
2021/08/15 17:52:03;;;;;;;12.40;7.27;;;;;;;27.17;46.97;98647.61;263280;1093;115330;-66
2021/08/15 17:57:06;;;;;;;8.40;6.50;;;;;;;27.10;46.83;98659.34;263092;1093;115892;-66
2021/08/15 18:02:11;;;;;;;10.90;6.40;;;;;;;27.04;46.69;98653.91;263136;1092;115574;-68
2021/08/15 18:07:15;;;;;;;11.65;5.70;;;;;;;27.00;46.34;98658.09;263118;1093;115247;-68
2021/08/15 18:12:20;;;;;;;94.65;71.50;;;;;;;26.99;46.91;98672.81;263180;1092;115252;-64
2021/08/15 18:17:24;;;;;;;18.63;11.67;;;;;;;26.94;47.02;98678.91;263184;1093;115830;-72
2021/08/15 18:22:28;;;;;;;;;;;;;;;26.88;46.99;98682.47;263138;1092;115658;-65
2021/08/15 18:27:31;;;;;;;17.40;9.70;;;;;;;26.80;46.99;98679.92;263207;1093;101532;-69
2021/08/15 18:32:35;;;;;;;13.60;7.63;;;;;;;26.71;46.80;98679.30;263181;1092;116328;-64
2021/08/15 18:37:40;;;;;;;12.83;7.08;;;;;;;26.60;46.69;98686.22;263231;1092;115384;-67
2021/08/15 18:42:45;;;;;;;12.97;7.03;;;;;;;26.48;46.91;98673.38;263192;1092;115275;-65
2021/08/15 18:47:48;;;;;;;13.83;8.73;;;;;;;26.38;47.71;98684.64;263237;1093;114959;-65
2021/08/15 18:52:53;;;;;;;11.10;6.57;;;;;;;26.27;47.93;98675.17;263071;1093;115916;-69
2021/08/15 18:57:56;;;;;;;253.93;205.63;;;;;;;26.16;48.19;98682.06;263109;1092;115132;-64
2021/08/15 19:03:00;;;;;;;29.58;23.50;;;;;;;26.07;47.98;98682.45;263214;1093;116062;-64
2021/08/15 19:08:04;;;;;;;15.33;8.05;;;;;;;25.96;48.12;98678.42;263102;1093;116070;-62
2021/08/15 19:13:08;;;;;;;16.27;8.30;;;;;;;25.84;48.53;98680.02;263192;1092;115594;-63
2021/08/15 19:18:12;;;;;;;13.85;7.90;;;;;;;25.77;49.79;98663.59;263234;1093;115442;-61
2021/08/15 19:23:17;;;;;;;11.18;7.23;;;;;;;25.66;49.99;98665.02;263194;1092;115913;-59
2021/08/15 19:28:21;;;;;;;15.33;7.03;;;;;;;25.54;50.58;98669.33;263124;1093;115733;-60
2021/08/15 19:33:25;;;;;;;18.03;7.28;;;;;;;25.42;50.79;98668.23;263201;1092;115110;-64
2021/08/15 19:38:29;;;;;;;;;;;;;;;25.29;51.50;98677.14;263164;1092;115261;-63
2021/08/15 19:43:33;;;;;;;15.33;8.43;;;;;;;25.16;51.48;98680.59;263243;1092;102535;-63
2021/08/15 19:48:36;;;;;;;10.65;7.45;;;;;;;25.07;51.67;98678.18;263170;1092;115368;-67
2021/08/15 19:53:40;;;;;;;13.75;7.98;;;;;;;24.96;52.07;98682.28;263300;1093;115202;-62
2021/08/15 19:58:44;;;;;;;10.53;8.10;;;;;;;24.86;52.28;98679.05;263288;1092;116295;-61
2021/08/15 20:03:47;;;;;;;14.60;8.45;;;;;;;24.75;52.58;98674.98;263165;1092;116051;-60
2021/08/15 20:08:51;;;;;;;15.30;8.63;;;;;;;24.65;52.58;98679.91;263108;1092;116154;-61
2021/08/15 20:13:54;;;;;;;15.95;8.68;;;;;;;24.58;52.89;98674.40;263087;1093;115574;-61
2021/08/15 20:18:58;;;;;;;11.90;8.30;;;;;;;24.49;53.02;98676.42;263151;1092;116157;-61
2021/08/15 20:24:02;;;;;;;18.40;9.35;;;;;;;24.41;53.27;98679.24;263331;1092;115693;-63
2021/08/15 20:29:05;;;;;;;12.55;8.80;;;;;;;24.30;53.46;98677.84;263236;1093;115509;-62
2021/08/15 20:34:09;;;;;;;13.65;8.68;;;;;;;24.21;53.96;98665.38;263243;1092;116247;-62
2021/08/15 20:39:13;;;;;;;12.73;8.17;;;;;;;24.13;54.04;98659.23;263154;1093;115256;-61
2021/08/15 20:44:17;;;;;;;17.23;9.43;;;;;;;24.03;54.47;98654.94;263056;1093;115253;-63
2021/08/15 20:49:20;;;;;;;18.28;9.68;;;;;;;23.95;54.86;98655.06;263203;1092;116109;-61
2021/08/15 20:54:24;;;;;;;12.58;8.38;;;;;;;23.88;54.95;98653.27;263312;1091;115597;-64
2021/08/15 20:59:28;;;;;;;14.65;8.38;;;;;;;23.84;55.00;98639.22;263219;1093;115205;-70
2021/08/15 21:04:31;;;;;;;13.28;8.90;;;;;;;23.81;55.30;98629.59;263226;1092;114987;-63
2021/08/15 21:09:35;;;;;;;14.33;8.65;;;;;;;23.79;55.49;98628.09;263205;1092;117008;-64
2021/08/15 21:14:40;;;;;;;12.95;8.23;;;;;;;23.76;55.52;98623.03;263252;1092;115139;-63
2021/08/15 21:19:43;;;;;;;14.37;8.07;;;;;;;23.69;55.84;98627.54;263156;1093;115390;-63
2021/08/15 21:24:47;;;;;;;15.83;8.20;;;;;;;23.61;55.81;98617.59;263160;1092;116159;-62
2021/08/15 21:29:50;;;;;;;19.25;9.33;;;;;;;23.53;55.97;98614.95;263333;1093;115266;-63
2021/08/15 21:34:54;;;;;;;14.48;8.53;;;;;;;23.43;55.66;98608.97;263224;1092;115293;-62
2021/08/15 21:39:57;;;;;;;11.27;7.97;;;;;;;23.28;56.08;98615.25;263164;1092;115784;-62
2021/08/15 21:45:01;;;;;;;15.28;7.98;;;;;;;23.17;56.04;98607.58;263151;1093;115887;-64
2021/08/15 21:50:05;;;;;;;13.90;7.68;;;;;;;23.12;56.13;98602.69;263107;1092;116883;-64
2021/08/15 21:55:09;;;;;;;13.37;8.27;;;;;;;23.01;56.26;98594.17;263233;1092;114928;-66
2021/08/15 22:00:14;;;;;;;12.27;7.17;;;;;;;22.92;56.52;98579.80;263330;1092;115721;-60
2021/08/15 22:05:17;;;;;;;12.98;7.70;;;;;;;22.86;56.72;98575.10;263227;1093;115129;-66
2021/08/15 22:10:22;;;;;;;15.00;8.45;;;;;;;22.85;57.26;98562.58;262750;1093;115304;-63
2021/08/15 22:15:26;;;;;;;13.90;8.03;;;;;;;22.80;57.45;98565.86;262352;1092;115753;-63
2021/08/15 22:20:30;;;;;;;12.00;8.43;;;;;;;22.79;57.61;98566.02;262868;1092;115110;-62
2021/08/15 22:25:34;;;;;;;14.50;9.13;;;;;;;22.73;57.57;98575.77;262571;1092;114990;-62
2021/08/15 22:30:38;;;;;;;9.38;7.80;;;;;;;22.64;57.67;98564.13;262913;1093;116368;-59
2021/08/15 22:35:45;;;;;;;13.68;8.70;;;;;;;22.58;57.83;98553.17;263299;1092;114858;-60
2021/08/15 22:40:49;;;;;;;14.00;8.43;;;;;;;22.49;57.72;98551.58;263185;1092;115677;-61
2021/08/15 22:45:54;;;;;;;15.90;7.60;;;;;;;22.43;58.05;98542.30;263184;1092;114968;-62
2021/08/15 22:50:58;;;;;;;14.90;8.60;;;;;;;22.39;58.01;98541.83;263125;1092;115360;-62
2021/08/15 22:56:01;;;;;;;13.45;7.48;;;;;;;22.37;58.20;98543.86;263214;1093;116246;-62
2021/08/15 23:01:06;;;;;;;12.20;7.38;;;;;;;22.39;58.26;98532.85;263217;1092;115691;-61
2021/08/15 23:06:14;;;;;;;11.73;7.73;;;;;;;22.41;58.54;98539.75;263311;1093;115368;-63
2021/08/15 23:11:18;;;;;;;12.20;8.30;;;;;;;22.37;58.43;98533.02;263169;1093;115151;-61